»·PEaware :: BTQ813 KSOW-KPHX

BTQ813 :: KSOW-KPHX

FLIGHT INFORMATION

Flight Status: Arrived
Operator: Unknown
More flights by this operator :: More flights under this callsign
Pilot: Armando C. (16967)
Aircraft: PILATUS PC-12 EAGLE
(PC12)
More flights by this aircraft type
Origin: KSOW Show Low Mun
United States
Destination: KPHX Phoenix Sky Harbor Intl
United States
More flights between these airports :: More routes between these airports
Route: +JESSE JESSE1
File this flight plan on PilotEdge
Remarks: PBN / D2 DOF / 180512 REG / N645PC OPR / BTQ PER / B RMK / TCAS SIMBRIEF
Altitude:
(Current/Filed)
22,000ft
Speed:
(Current/Filed)
277kts
Departed: 12-May-18 12:59 PM
Arrived: 12-May-18 01:39 PM
Distance/Time
Traveled:
112nm/0:40
Distance/Time
To Go:
Arrived

Flight Plot

Page will automatically refresh every two minutes.

Flight plan parsing failed; only flown route is shown


Map Options




Map Legend


Flown Route
Filed Route
Departure Airport
Arrival Airport
Navaid (VOR, NDB)
Fix

Horizontal Profiles

Position Reports

Time Latitude Longitude Heading Altitude Ground
Speed
12-May-18 12:39 34.264465 -110.007737 0 6419ft 0kts
12-May-18 12:40 34.264465 -110.007737 344 6419ft 0kts
12-May-18 12:41 34.264465 -110.007737 344 6419ft 0kts
12-May-18 12:42 34.264465 -110.007737 344 6419ft 0kts
12-May-18 12:43 34.264465 -110.007737 344 6419ft 0kts
12-May-18 12:44 34.264790 -110.008170 59 6419ft 8kts
12-May-18 12:45 34.266183 -110.001717 78 6419ft 26kts
12-May-18 12:46 34.266472 -110.000486 79 6419ft 0kts
12-May-18 12:47 34.266472 -110.000486 79 6419ft 0kts
12-May-18 12:48 34.266472 -110.000486 79 6419ft 0kts
12-May-18 12:49 34.266472 -110.000486 79 6419ft 0kts
12-May-18 12:50 34.266472 -110.000486 79 6419ft 0kts
12-May-18 12:51 34.266472 -110.000486 79 6419ft 0kts
12-May-18 12:52 34.266472 -110.000486 79 6419ft 0kts
12-May-18 12:53 34.266472 -110.000486 79 6419ft 0kts
12-May-18 12:54 34.266472 -110.000486 79 6419ft 0kts
12-May-18 12:55 34.266472 -110.000486 79 6419ft 0kts
12-May-18 12:56 34.266472 -110.000486 79 6419ft 0kts
12-May-18 12:57 34.266472 -110.000486 79 6419ft 0kts
12-May-18 12:58 34.266472 -110.000484 85 6419ft 1kts
12-May-18 12:59 34.262205 -110.005668 225 6511ft 83kts
12-May-18 13:00 34.275011 -110.037540 311 7885ft 171kts
12-May-18 13:01 34.301420 -110.082052 281 9742ft 157kts
12-May-18 13:02 34.308920 -110.128461 272 11715ft 143kts
12-May-18 13:03 34.322561 -110.171732 275 13675ft 130kts
12-May-18 13:04 34.335360 -110.207816 279 15348ft 119kts
12-May-18 13:05 34.354471 -110.243287 285 16562ft 144kts
12-May-18 13:06 34.370078 -110.294338 260 17323ft 173kts
12-May-18 13:07 34.385778 -110.357614 282 18023ft 213kts
12-May-18 13:08 34.409102 -110.426258 283 18713ft 225kts
12-May-18 13:09 34.413471 -110.494239 236 19447ft 204kts
12-May-18 13:10 34.385495 -110.555180 236 20011ft 213kts
12-May-18 13:11 34.355058 -110.620623 237 20010ft 232kts
12-May-18 13:12 34.323084 -110.688896 236 20025ft 238kts
12-May-18 13:13 34.290060 -110.759187 236 20038ft 241kts
12-May-18 13:14 34.256922 -110.829694 236 20040ft 240kts
12-May-18 13:15 34.225038 -110.897964 236 20033ft 227kts
12-May-18 13:16 34.194537 -110.963627 240 20031ft 223kts
12-May-18 13:17 34.168240 -111.030470 229 20034ft 219kts
12-May-18 13:18 34.128264 -111.086301 225 19712ft 230kts
12-May-18 13:19 34.082901 -111.145206 225 18405ft 248kts
12-May-18 13:20 34.035377 -111.206280 225 17074ft 251kts
12-May-18 13:21 33.987363 -111.267797 224 15541ft 252kts
12-May-18 13:22 33.939626 -111.328837 224 14016ft 251kts
12-May-18 13:23 33.890692 -111.386599 227 12587ft 247kts
12-May-18 13:24 33.848965 -111.448272 229 12002ft 223kts
12-May-18 13:25 33.809079 -111.498379 211 12056ft 201kts
12-May-18 13:26 33.758523 -111.536022 211 11065ft 223kts
12-May-18 13:27 33.704788 -111.575632 211 10066ft 229kts
12-May-18 13:28 33.649010 -111.616335 211 8653ft 241kts
12-May-18 13:29 33.591402 -111.656948 211 7163ft 240kts
12-May-18 13:30 33.535512 -111.695034 210 5663ft 227kts
12-May-18 13:31 33.487101 -111.740228 229 4168ft 222kts
12-May-18 13:32 33.452504 -111.789651 229 4050ft 146kts
12-May-18 13:33 33.432791 -111.819029 229 4016ft 105kts
12-May-18 13:34 33.428645 -111.858734 265 3470ft 128kts
12-May-18 13:35 33.428692 -111.899422 264 2817ft 119kts
12-May-18 13:36 33.428723 -111.938600 266 2168ft 116kts
12-May-18 13:37 33.428786 -111.976488 266 1584ft 105kts
12-May-18 13:38 33.428956 -112.008263 268 1138ft 71kts
12-May-18 13:39 33.430128 -112.016093 43 1138ft 0kts
12-May-18 13:40 33.431729 -112.015686 7 1138ft 18kts
12-May-18 13:41 33.434190 -112.012600 303 1138ft 13kts
12-May-18 13:42 33.434416 -112.013253 291 1138ft 0kts
12-May-18 13:43 33.434416 -112.013253 291 1138ft 0kts
12-May-18 13:44 33.434416 -112.013253 291 1138ft 0kts
12-May-18 13:45 33.434416 -112.013253 291 1138ft 0kts
12-May-18 13:46 33.434416 -112.013253 291 1138ft 0kts
12-May-18 13:47 33.434416 -112.013253 291 1138ft 0kts
12-May-18 13:48 33.434416 -112.013253 291 1138ft 0kts
12-May-18 13:49 33.434416 -112.013253 291 1138ft 0kts
12-May-18 13:50 33.434416 -112.013253 291 1138ft 0kts
12-May-18 13:51 33.434416 -112.013253 291 1138ft 0kts
12-May-18 13:52 33.434416 -112.013253 291 1138ft 0kts
12-May-18 13:53 33.434416 -112.013253 291 1138ft 0kts

Navigation Log

Ident Type
Flight plan parsing failed, navigation log unavailable